createdAt,value
2019-04-29T00:00:10.965Z,98.48
2019-04-29T00:05:09.230Z,97.37
2019-04-29T00:10:13.290Z,98.39
2019-04-29T00:15:09.802Z,97.78
2019-04-29T00:20:10.866Z,98.41
2019-04-29T00:25:07.464Z,95.34
2019-04-29T00:30:07.143Z,97.04
2019-04-29T00:35:06.921Z,97.02
2019-04-29T00:40:06.712Z,98.02
2019-04-29T00:45:03.290Z,98.59
2019-04-29T00:50:02.893Z,98.66
2019-04-29T00:55:04.734Z,97.33
2019-04-29T01:00:03.928Z,98.21
2019-04-29T01:05:10.195Z,97.22
2019-04-29T01:10:15.774Z,97.92
2019-04-29T01:15:15.716Z,97.98
2019-04-29T01:20:10.410Z,98.42
2019-04-29T01:25:10.750Z,98.37
2019-04-29T01:30:10.273Z,95.28
2019-04-29T01:35:08.326Z,97.37
2019-04-29T01:40:12.834Z,98.28
2019-04-29T01:45:08.394Z,97.26
2019-04-29T01:50:06.990Z,98.76
2019-04-29T01:55:07.966Z,96.05
2019-04-29T02:00:04.476Z,97.81
2019-04-29T02:05:07.171Z,98.9
2019-04-29T02:10:03.861Z,98.18
2019-04-29T02:15:07.928Z,99.01
2019-04-29T02:20:12.339Z,97.69
2019-04-29T02:25:08.167Z,98.66
2019-04-29T02:30:11.582Z,97.62
2019-04-29T02:35:12.087Z,98.43
2019-04-29T02:40:10.516Z,95.72
2019-04-29T02:45:03.844Z,98.64
2019-04-29T02:50:11.785Z,96.08
2019-04-29T02:55:11.272Z,98.92
2019-04-29T03:00:07.070Z,96.36
2019-04-29T03:05:15.764Z,98.93
2019-04-29T03:10:04.695Z,96.35
2019-04-29T03:15:06.201Z,98.72
2019-04-29T03:20:10.369Z,95.92
2019-04-29T03:25:10.186Z,97.71
2019-04-29T03:30:10.344Z,98.65
2019-04-29T03:35:12.487Z,97.82
2019-04-29T03:40:09.923Z,98.89
2019-04-29T03:45:07.853Z,97.97
2019-04-29T03:50:08.688Z,98.79
2019-04-29T03:55:08.132Z,97.89
2019-04-29T04:00:02.641Z,99.14
2019-04-29T04:05:07.982Z,98.02
2019-04-29T04:10:04.241Z,99.12
2019-04-29T04:15:07.685Z,98.15
2019-04-29T04:20:06.676Z,98.85
2019-04-29T04:25:08.013Z,97.99
2019-04-29T04:30:02.515Z,99.14
2019-04-29T04:35:05.525Z,99.04
2019-04-29T04:40:05.740Z,96.47
2019-04-29T04:45:03.209Z,98.21
2019-04-29T04:50:07.882Z,99.09
2019-04-29T04:55:07.667Z,98.23
2019-04-29T05:00:03.631Z,96.91
2019-04-29T05:05:07.345Z,96.75
2019-04-29T05:10:14.321Z,96.55
2019-04-29T05:15:05.601Z,97.14
2019-04-29T05:20:09.588Z,97.03
2019-04-29T05:25:07.248Z,96.96
2019-04-29T05:30:03.571Z,98.75
2019-04-29T05:35:07.989Z,98.52
2019-04-29T05:40:07.195Z,98.51
2019-04-29T05:45:03.841Z,98.85
2019-04-29T05:50:07.060Z,95.74
2019-04-29T05:55:09.595Z,98.06
2019-04-29T06:00:04.144Z,95.35
2019-04-29T06:05:06.417Z,93.36
2019-04-29T06:10:05.173Z,92.47
2019-04-29T06:15:06.799Z,89.17
2019-04-29T06:20:07.228Z,88.68
2019-04-29T06:25:08.834Z,85.51
2019-04-29T06:30:04.962Z,85.24
2019-04-29T06:35:10.569Z,86.29
2019-04-29T06:40:10.247Z,85.53
2019-04-29T06:45:05.542Z,86.79
2019-04-29T06:50:09.731Z,87.2
2019-04-29T06:55:08.081Z,87.48
2019-04-29T07:00:04.216Z,88.16
2019-04-29T07:05:09.768Z,87.25
2019-04-29T07:10:04.247Z,86.1
2019-04-29T07:15:07.670Z,85.85
2019-04-29T07:20:08.093Z,86.15
2019-04-29T07:25:06.661Z,86.67
2019-04-29T07:30:06.563Z,86.38
2019-04-29T07:35:09.777Z,85.3
2019-04-29T07:40:08.138Z,84.52
2019-04-29T07:45:02.745Z,83.56
2019-04-29T07:50:06.399Z,83.74
2019-04-29T07:55:07.142Z,81.56
2019-04-29T08:00:03.322Z,82.63
2019-04-29T08:05:06.559Z,83.23
2019-04-29T08:10:22.732Z,82.61
2019-04-29T08:15:07.751Z,82.37
2019-04-29T08:20:07.385Z,81.72
2019-04-29T08:25:07.562Z,81.44
2019-04-29T08:30:06.638Z,80.89
2019-04-29T08:35:07.316Z,77.78
2019-04-29T08:40:16.362Z,78.55
2019-04-29T08:45:03.263Z,76.22
2019-04-29T08:50:09.033Z,75.94
2019-04-29T08:55:08.299Z,75.51
2019-04-29T09:00:02.850Z,77.45
2019-04-29T09:05:11.297Z,79.02
2019-04-29T09:10:04.366Z,76.96
2019-04-29T09:15:07.755Z,77.37
2019-04-29T09:20:08.853Z,75.44
2019-04-29T09:25:07.691Z,75.91
2019-04-29T09:30:03.157Z,74.62
2019-04-29T09:35:05.897Z,71.82
2019-04-29T09:40:06.347Z,71.18
2019-04-29T09:45:02.805Z,68.89
2019-04-29T09:50:06.426Z,71.19
2019-04-29T09:55:05.850Z,72.07
2019-04-29T10:00:05.448Z,71.46
2019-04-29T10:05:05.184Z,68.56
2019-04-29T10:10:07.946Z,67.76
2019-04-29T10:15:03.986Z,67.82
2019-04-29T10:20:08.077Z,69.69
2019-04-29T10:25:05.555Z,70.17
2019-04-29T10:30:03.743Z,69.14
2019-04-29T10:35:08.902Z,67.97
2019-04-29T10:40:11.294Z,66.29
2019-04-29T10:45:04.257Z,69.13
2019-04-29T10:50:10.644Z,67.28
2019-04-29T10:55:06.975Z,65.48
2019-04-29T11:00:04.558Z,66.03
2019-04-29T11:05:07.867Z,66.64
2019-04-29T11:10:08.116Z,67.51
2019-04-29T11:15:03.829Z,65.43
2019-04-29T11:20:11.164Z,66.21
2019-04-29T11:25:07.572Z,65.48
2019-04-29T11:30:04.890Z,66.91
2019-04-29T11:35:06.631Z,64.44
2019-04-29T11:40:07.340Z,62.83
2019-04-29T11:45:04.000Z,64.67
2019-04-29T11:50:07.544Z,67.94
2019-04-29T11:55:07.145Z,63.58
2019-04-29T12:00:03.897Z,60.84
2019-04-29T12:05:08.736Z,65.2
2019-04-29T12:10:07.932Z,66.13
2019-04-29T12:15:03.770Z,64.97
2019-04-29T12:20:07.383Z,62.52
2019-04-29T12:25:09.379Z,60.81
2019-04-29T12:30:03.944Z,59.17
2019-04-29T12:35:07.514Z,58.88
2019-04-29T12:40:14.058Z,61.59
2019-04-29T12:45:04.049Z,60.51
2019-04-29T12:50:08.100Z,62.44
2019-04-29T12:55:20.272Z,62.36
2019-04-29T13:00:07.712Z,62.65
2019-04-29T13:05:10.313Z,61.45
2019-04-29T13:10:06.958Z,61.38
2019-04-29T13:15:12.332Z,59.35
2019-04-29T13:20:11.840Z,58.89
2019-04-29T13:25:07.399Z,61.36
2019-04-29T13:30:07.307Z,60.62
2019-04-29T13:35:12.207Z,61.52
2019-04-29T13:40:07.369Z,61.41
2019-04-29T13:45:09.401Z,60.68
2019-04-29T13:50:17.930Z,59.17
2019-04-29T13:55:17.149Z,58.08
2019-04-29T14:00:03.631Z,59.67
2019-04-29T14:05:07.223Z,61.63
2019-04-29T14:10:10.322Z,60.07
2019-04-29T14:15:04.278Z,61.33
2019-04-29T14:20:10.865Z,57.25
2019-04-29T14:25:08.151Z,60.68
2019-04-29T14:30:07.126Z,60.88
2019-04-29T14:35:11.640Z,60.43
2019-04-29T14:40:09.442Z,61.36
2019-04-29T14:45:03.010Z,61.13
2019-04-29T14:50:06.592Z,62.12
2019-04-29T14:55:09.172Z,62.26
2019-04-29T15:00:02.877Z,62.32
2019-04-29T15:05:11.701Z,63.45
2019-04-29T15:10:04.855Z,63.64
2019-04-29T15:15:06.416Z,61.63
2019-04-29T15:20:09.955Z,61.51
2019-04-29T15:25:08.694Z,63.45
2019-04-29T15:30:03.152Z,63.17
2019-04-29T15:35:07.751Z,62.26
2019-04-29T15:40:07.889Z,63.1
2019-04-29T15:45:03.346Z,61.5
2019-04-29T15:50:18.121Z,61.49
2019-04-29T15:55:06.664Z,61.62
2019-04-29T16:00:20.159Z,63.32
2019-04-29T16:05:09.147Z,62.74
2019-04-29T16:10:07.043Z,61.62
2019-04-29T16:15:02.536Z,64.25
2019-04-29T16:20:06.439Z,63.27
2019-04-29T16:25:10.871Z,64.25
2019-04-29T16:30:03.256Z,64.71
2019-04-29T16:35:06.155Z,64.16
2019-04-29T16:40:06.973Z,64.54
2019-04-29T16:45:06.305Z,64.52
2019-04-29T16:50:06.163Z,64.85
2019-04-29T16:55:05.973Z,61.87
2019-04-29T17:00:06.363Z,62.07
2019-04-29T17:05:05.975Z,62.7
2019-04-29T17:10:05.866Z,61.84
2019-04-29T17:15:23.002Z,62.56
2019-04-29T17:20:05.901Z,63.07
2019-04-29T17:25:07.826Z,64.77
2019-04-29T17:30:07.796Z,64.61
2019-04-29T17:35:06.961Z,67.67
2019-04-29T17:40:06.770Z,66.9
2019-04-29T17:45:10.506Z,70.66
2019-04-29T17:50:08.623Z,76.23
2019-04-29T17:55:07.947Z,77.85
2019-04-29T18:00:08.411Z,78.55
2019-04-29T18:05:07.450Z,79.64
2019-04-29T18:10:09.538Z,82.89
2019-04-29T18:15:05.994Z,83.11
2019-04-29T18:20:13.441Z,82.61
2019-04-29T18:25:10.821Z,82.5
2019-04-29T18:30:06.963Z,81.96
2019-04-29T18:35:09.299Z,81.27
2019-04-29T18:40:08.365Z,82.16
2019-04-29T18:45:05.093Z,82.54
2019-04-29T18:50:09.446Z,85.14
2019-04-29T18:55:07.667Z,86.27
2019-04-29T19:00:11.683Z,87.04
2019-04-29T19:05:08.593Z,87.2
2019-04-29T19:10:18.783Z,88.75
2019-04-29T19:15:04.924Z,89.66
2019-04-29T19:20:08.723Z,88.31
2019-04-29T19:25:11.776Z,84.4
2019-04-29T19:30:05.361Z,81.68
2019-04-29T19:35:06.629Z,81.66
2019-04-29T19:40:08.385Z,81.1
2019-04-29T19:45:06.343Z,80.57
2019-04-29T19:50:06.951Z,80.38
2019-04-29T19:55:07.554Z,80.5
2019-04-29T20:00:06.448Z,80.35
2019-04-29T20:05:08.209Z,80.57
2019-04-29T20:10:10.591Z,80.58
2019-04-29T20:15:07.752Z,80.75
2019-04-29T20:20:07.191Z,81.06
2019-04-29T20:25:10.785Z,80.99
2019-04-29T20:30:15.809Z,81.77
2019-04-29T20:35:09.047Z,82.01
2019-04-29T20:40:09.566Z,81.89
2019-04-29T20:45:05.408Z,82.5
2019-04-29T20:50:13.846Z,82.96
2019-04-29T20:55:09.326Z,82.73
2019-04-29T21:00:06.193Z,82.46
2019-04-29T21:05:09.996Z,83.18
2019-04-29T21:10:08.430Z,83.43
2019-04-29T21:15:09.339Z,84.12
2019-04-29T21:20:07.819Z,85.01
2019-04-29T21:25:08.058Z,85.92
2019-04-29T21:30:03.803Z,86.88
2019-04-29T21:35:10.137Z,88.75
2019-04-29T21:40:18.847Z,91.74
2019-04-29T21:45:04.684Z,92.81
2019-04-29T21:50:06.228Z,94.83
2019-04-29T21:55:07.465Z,96.46
2019-04-29T22:00:02.961Z,97.73
2019-04-29T22:05:09.573Z,97.13
2019-04-29T22:10:07.691Z,98.24
2019-04-29T22:15:03.683Z,95.73
2019-04-29T22:20:07.777Z,97.36
2019-04-29T22:25:09.934Z,98.42
2019-04-29T22:30:02.583Z,98.63
2019-04-29T22:35:07.339Z,97.89
2019-04-29T22:40:09.564Z,96.16
2019-04-29T22:45:05.676Z,96.79
2019-04-29T22:50:10.042Z,96.52
2019-04-29T22:55:07.321Z,96.55
2019-04-29T23:00:02.821Z,98.85
2019-04-29T23:05:08.587Z,98.2
2019-04-29T23:15:02.149Z,96.25
2019-04-29T23:20:03.189Z,98.21
2019-04-29T23:25:12.019Z,95.96
2019-04-29T23:30:07.935Z,96.83
2019-04-29T23:35:10.052Z,97.06
2019-04-29T23:40:08.100Z,96.19
2019-04-29T23:45:09.446Z,96.64
2019-04-29T23:50:07.932Z,96.46
2019-04-29T23:55:07.789Z,96.45
